createdAt,value
2018-01-13T00:00:49.885Z,4.56
2018-01-13T00:03:17.716Z,4.58
2018-01-13T00:05:45.370Z,4.58
2018-01-13T00:08:12.953Z,4.61
2018-01-13T00:10:40.548Z,4.61
2018-01-13T00:13:08.378Z,4.58
2018-01-13T00:15:36.176Z,4.59
2018-01-13T00:18:04.116Z,4.61
2018-01-13T00:20:32.460Z,4.62
2018-01-13T00:23:00.447Z,4.62
2018-01-13T00:25:28.579Z,4.62
2018-01-13T00:27:56.560Z,4.61
2018-01-13T00:30:24.642Z,4.62
2018-01-13T00:32:52.873Z,4.62
2018-01-13T00:35:21.233Z,4.65
2018-01-13T00:37:49.338Z,4.63
2018-01-13T00:40:16.964Z,4.59
2018-01-13T00:42:44.670Z,4.59
2018-01-13T00:45:12.229Z,4.60
2018-01-13T00:47:39.784Z,4.60
2018-01-13T00:50:07.432Z,4.60
2018-01-13T00:52:35.033Z,4.58
2018-01-13T00:55:03.059Z,4.59
2018-01-13T00:57:30.755Z,4.60
2018-01-13T00:59:58.668Z,4.60
2018-01-13T01:02:26.301Z,4.63
2018-01-13T01:04:53.907Z,4.64
2018-01-13T01:07:21.866Z,4.66
2018-01-13T01:09:49.457Z,4.66
2018-01-13T01:12:17.007Z,4.65
2018-01-13T01:14:44.657Z,4.62
2018-01-13T01:17:12.297Z,4.64
2018-01-13T01:19:39.886Z,4.63
2018-01-13T01:22:07.487Z,4.62
2018-01-13T01:24:35.181Z,4.64
2018-01-13T01:27:02.733Z,4.65
2018-01-13T01:29:30.328Z,4.65
2018-01-13T01:31:58.240Z,4.63
2018-01-13T01:34:25.837Z,4.62
2018-01-13T01:36:53.466Z,4.64
2018-01-13T01:39:21.096Z,4.61
2018-01-13T01:41:48.737Z,4.60
2018-01-13T01:44:16.363Z,4.60
2018-01-13T01:46:44.266Z,4.61
2018-01-13T01:49:11.932Z,4.64
2018-01-13T01:51:39.536Z,4.65
2018-01-13T01:54:07.224Z,4.66
2018-01-13T01:56:34.802Z,4.66
2018-01-13T01:59:02.671Z,4.66
2018-01-13T02:01:30.248Z,4.67
2018-01-13T02:03:58.038Z,4.66
2018-01-13T02:06:25.759Z,4.63
2018-01-13T02:08:53.350Z,4.63
2018-01-13T02:11:21.025Z,4.63
2018-01-13T02:13:48.708Z,4.65
2018-01-13T02:16:16.821Z,4.68
2018-01-13T02:18:44.519Z,4.67
2018-01-13T02:21:12.135Z,4.66
2018-01-13T02:23:39.818Z,4.64
2018-01-13T02:26:07.693Z,4.66
2018-01-13T02:28:35.311Z,4.64
2018-01-13T02:31:03.118Z,4.64
2018-01-13T02:33:31.040Z,4.64
2018-01-13T02:35:58.705Z,4.62
2018-01-13T02:38:26.331Z,4.62
2018-01-13T02:40:53.940Z,4.59
2018-01-13T02:43:21.564Z,4.61
2018-01-13T02:45:49.159Z,4.64
2018-01-13T02:48:16.787Z,4.65
2018-01-13T02:50:44.616Z,4.69
2018-01-13T02:53:12.520Z,4.67
2018-01-13T02:55:40.087Z,4.65
2018-01-13T02:58:07.909Z,4.61
2018-01-13T03:00:35.470Z,4.59
2018-01-13T03:03:03.057Z,4.57
2018-01-13T03:05:30.855Z,4.56
2018-01-13T03:07:58.502Z,4.54
2018-01-13T03:10:26.140Z,4.56
2018-01-13T03:12:54.088Z,4.58
2018-01-13T03:15:22.057Z,4.58
2018-01-13T03:17:49.687Z,4.59
2018-01-13T03:20:17.377Z,4.55
2018-01-13T03:22:44.983Z,4.56
2018-01-13T03:25:12.544Z,4.56
2018-01-13T03:27:40.166Z,4.56
2018-01-13T03:30:07.801Z,4.56
2018-01-13T03:32:35.428Z,4.56
2018-01-13T03:35:03.063Z,4.58
2018-01-13T03:37:30.664Z,4.57
2018-01-13T03:39:58.226Z,4.54
2018-01-13T03:42:25.842Z,4.53
2018-01-13T03:44:53.401Z,4.49
2018-01-13T03:47:21.045Z,4.49
2018-01-13T03:49:48.637Z,4.51
2018-01-13T03:52:16.216Z,4.52
2018-01-13T03:54:43.852Z,4.53
2018-01-13T03:57:11.474Z,4.53
2018-01-13T03:59:39.073Z,4.51
2018-01-13T04:02:06.932Z,4.51
2018-01-13T04:04:34.483Z,4.52
2018-01-13T04:07:02.143Z,4.50
2018-01-13T04:09:30.005Z,4.48
2018-01-13T04:11:57.606Z,4.48
2018-01-13T04:14:25.161Z,4.50
2018-01-13T04:16:52.749Z,4.50
2018-01-13T04:19:20.578Z,4.53
2018-01-13T04:21:48.171Z,4.52
2018-01-13T04:24:15.844Z,4.53
2018-01-13T04:26:43.465Z,4.55
2018-01-13T04:29:11.067Z,4.56
2018-01-13T04:31:38.729Z,4.54
2018-01-13T04:34:06.351Z,4.50
2018-01-13T04:36:33.903Z,4.51
2018-01-13T04:39:01.694Z,4.52
2018-01-13T04:41:29.355Z,4.54
2018-01-13T04:43:56.922Z,4.54
2018-01-13T04:46:24.580Z,4.55
2018-01-13T04:48:52.376Z,4.54
2018-01-13T04:51:20.559Z,4.55
2018-01-13T04:53:48.153Z,4.52
2018-01-13T04:56:16.107Z,4.53
2018-01-13T04:58:43.685Z,4.55
2018-01-13T05:01:11.240Z,4.55
2018-01-13T05:03:39.202Z,4.54
2018-01-13T05:06:06.793Z,4.56
2018-01-13T05:08:34.658Z,4.57
2018-01-13T05:11:02.284Z,4.55
2018-01-13T05:13:30.156Z,4.56
2018-01-13T05:15:58.126Z,4.57
2018-01-13T05:18:26.385Z,4.59
2018-01-13T05:20:53.979Z,4.62
2018-01-13T05:23:21.820Z,4.62
2018-01-13T05:25:49.474Z,4.62
2018-01-13T05:28:17.084Z,4.61
2018-01-13T05:30:44.795Z,4.62
2018-01-13T05:33:12.360Z,4.62
2018-01-13T05:35:40.220Z,4.63
2018-01-13T05:38:08.360Z,4.65
2018-01-13T05:40:36.263Z,4.65
2018-01-13T05:43:03.892Z,4.62
2018-01-13T05:45:31.773Z,4.64
2018-01-13T05:47:59.371Z,4.66
2018-01-13T05:50:26.968Z,4.61
2018-01-13T05:52:54.641Z,4.59
2018-01-13T05:55:22.209Z,4.60
2018-01-13T05:57:50.115Z,4.61
2018-01-13T06:00:17.762Z,4.61
2018-01-13T06:02:45.518Z,4.60
2018-01-13T06:05:13.409Z,4.60
2018-01-13T06:07:41.062Z,4.66
2018-01-13T06:10:08.634Z,4.65
2018-01-13T06:12:36.282Z,4.65
2018-01-13T06:15:03.902Z,4.59
2018-01-13T06:20:05.934Z,4.58
2018-01-13T06:22:33.545Z,4.61
2018-01-13T06:25:01.102Z,4.61
2018-01-13T06:27:28.927Z,4.60
2018-01-13T06:29:56.868Z,4.63
2018-01-13T06:32:24.758Z,4.64
2018-01-13T06:34:52.356Z,4.63
2018-01-13T06:37:20.397Z,4.65
2018-01-13T06:39:48.020Z,4.63
2018-01-13T06:42:15.577Z,4.61
2018-01-13T06:44:43.585Z,4.63
2018-01-13T06:47:11.192Z,4.63
2018-01-13T06:49:38.824Z,4.60
2018-01-13T06:52:06.415Z,4.60
2018-01-13T06:54:34.088Z,4.61
2018-01-13T06:57:02.000Z,4.61
2018-01-13T06:59:29.565Z,4.61
2018-01-13T07:01:57.137Z,4.59
2018-01-13T07:04:24.759Z,4.58
2018-01-13T07:06:52.362Z,4.61
2018-01-13T07:09:20.184Z,4.59
2018-01-13T07:11:48.075Z,4.59
2018-01-13T07:14:15.935Z,4.60
2018-01-13T07:16:43.554Z,4.60
2018-01-13T07:19:11.185Z,4.60
2018-01-13T07:21:38.767Z,4.60
2018-01-13T07:24:06.393Z,4.60
2018-01-13T07:26:34.021Z,4.60
2018-01-13T07:29:01.648Z,4.59
2018-01-13T07:31:29.255Z,4.59
2018-01-13T07:33:56.902Z,4.63
2018-01-13T07:36:24.807Z,4.64
2018-01-13T07:38:52.609Z,4.66
2018-01-13T07:41:20.261Z,4.63
2018-01-13T07:43:49.893Z,4.66
2018-01-13T07:46:17.478Z,4.64
2018-01-13T07:48:45.436Z,4.64
2018-01-13T07:51:13.255Z,4.63
2018-01-13T07:53:40.809Z,4.66
2018-01-13T07:56:08.440Z,4.67
2018-01-13T07:58:36.127Z,4.67
2018-01-13T08:01:03.981Z,4.66
2018-01-13T08:03:31.708Z,4.66
2018-01-13T08:05:59.717Z,4.67
2018-01-13T08:08:27.326Z,4.69
2018-01-13T08:10:54.950Z,4.74
2018-01-13T08:13:22.741Z,4.74
2018-01-13T08:15:50.322Z,4.70
2018-01-13T08:18:17.937Z,4.72
2018-01-13T08:20:46.457Z,4.68
2018-01-13T08:23:14.390Z,4.67
2018-01-13T08:25:42.035Z,4.66
2018-01-13T08:28:09.592Z,4.65
2018-01-13T08:30:37.462Z,4.65
2018-01-13T08:33:05.137Z,4.66
2018-01-13T08:35:33.043Z,4.68
2018-01-13T08:38:00.702Z,4.65
2018-01-13T08:40:28.306Z,4.68
2018-01-13T08:42:56.230Z,4.72
2018-01-13T08:45:23.812Z,4.74
2018-01-13T08:47:51.426Z,4.75
2018-01-13T08:50:18.990Z,4.70
2018-01-13T08:52:46.633Z,4.69
2018-01-13T08:55:14.302Z,4.73
2018-01-13T08:57:41.966Z,4.73
2018-01-13T09:00:09.584Z,4.74
2018-01-13T09:02:39.907Z,4.75
2018-01-13T09:05:07.810Z,4.77
2018-01-13T09:07:35.364Z,4.76
2018-01-13T09:10:03.029Z,4.77
2018-01-13T09:12:30.694Z,4.76
2018-01-13T09:14:58.544Z,4.79
2018-01-13T09:17:26.382Z,4.83
2018-01-13T09:19:54.015Z,4.85
2018-01-13T09:22:21.630Z,4.90
2018-01-13T09:24:49.247Z,4.88
2018-01-13T09:27:17.292Z,4.89
2018-01-13T09:29:44.869Z,4.90
2018-01-13T09:32:12.525Z,4.92
2018-01-13T09:34:40.131Z,4.95
2018-01-13T09:37:07.984Z,4.96
2018-01-13T09:39:35.568Z,5.01
2018-01-13T09:42:03.192Z,5.02
2018-01-13T09:44:30.868Z,5.03
2018-01-13T09:46:58.663Z,5.10
2018-01-13T09:49:26.310Z,5.10
2018-01-13T09:51:53.869Z,5.08
2018-01-13T09:54:21.426Z,5.11
2018-01-13T09:56:49.013Z,5.14
2018-01-13T09:59:16.604Z,5.15
2018-01-13T10:01:44.567Z,5.18
2018-01-13T10:04:12.154Z,5.21
2018-01-13T10:06:40.210Z,5.24
2018-01-13T10:09:07.913Z,5.25
2018-01-13T10:11:35.586Z,5.29
2018-01-13T10:14:03.206Z,5.30
2018-01-13T10:16:30.810Z,5.30
2018-01-13T10:18:58.429Z,5.29
2018-01-13T10:21:26.024Z,5.32
2018-01-13T10:23:54.356Z,5.36
2018-01-13T10:26:22.879Z,5.40
2018-01-13T10:28:50.462Z,5.41
2018-01-13T10:31:18.095Z,5.45
2018-01-13T10:33:46.014Z,5.45
2018-01-13T10:36:13.578Z,5.43
2018-01-13T10:38:41.338Z,5.47
2018-01-13T10:41:09.098Z,5.48
2018-01-13T10:43:36.661Z,5.48
2018-01-13T10:46:04.274Z,5.51
2018-01-13T10:48:31.894Z,5.56
2018-01-13T10:50:59.955Z,5.60
2018-01-13T10:53:27.554Z,5.63
2018-01-13T10:55:55.108Z,5.69
2018-01-13T10:58:22.735Z,5.76
2018-01-13T11:00:50.318Z,5.81
2018-01-13T11:03:17.999Z,5.85
2018-01-13T11:05:45.606Z,5.94
2018-01-13T11:08:13.308Z,6.02
2018-01-13T11:10:40.954Z,6.05
2018-01-13T11:13:08.561Z,6.05
2018-01-13T11:15:36.574Z,6.08
2018-01-13T11:18:04.170Z,6.13
2018-01-13T11:20:32.102Z,6.10
2018-01-13T11:22:59.661Z,6.19
2018-01-13T11:25:27.299Z,6.23
2018-01-13T11:27:54.867Z,6.22
2018-01-13T11:30:22.796Z,6.19
2018-01-13T11:32:50.427Z,6.26
2018-01-13T11:35:18.033Z,6.28
2018-01-13T11:37:46.033Z,6.29
2018-01-13T11:40:13.653Z,6.24
2018-01-13T11:42:41.579Z,6.27
2018-01-13T11:45:09.178Z,6.31
2018-01-13T11:47:36.820Z,6.32
2018-01-13T11:50:04.718Z,6.35
2018-01-13T11:52:32.290Z,6.38
2018-01-13T11:55:00.212Z,6.39
2018-01-13T12:00:50.022Z,6.46
2018-01-13T12:03:29.528Z,6.48
2018-01-13T12:28:07.222Z,6.39
2018-01-13T12:30:35.386Z,6.42
2018-01-13T12:36:16.050Z,6.56
2018-01-13T12:41:51.586Z,6.67
2018-01-13T12:44:19.248Z,6.69
2018-01-13T12:46:49.200Z,6.70
2018-01-13T12:49:30.970Z,6.70
2018-01-13T12:52:08.178Z,6.68
2018-01-13T13:01:01.598Z,6.61
2018-01-13T13:03:29.237Z,6.65
2018-01-13T13:05:56.887Z,6.63
2018-01-13T13:08:24.452Z,6.61
2018-01-13T13:11:16.484Z,6.59
2018-01-13T13:13:44.484Z,6.57
2018-01-13T13:16:17.727Z,6.59
2018-01-13T13:18:45.287Z,6.55
2018-01-13T13:35:02.211Z,6.49
2018-01-13T13:37:30.788Z,6.45
2018-01-13T13:39:58.416Z,6.46
2018-01-13T13:42:26.710Z,6.42
2018-01-13T13:44:54.265Z,6.39
2018-01-13T13:47:21.961Z,6.39
2018-01-13T13:49:49.852Z,6.39
2018-01-13T13:52:18.665Z,6.37
2018-01-13T13:55:01.112Z,6.34
2018-01-13T13:57:28.883Z,6.34
2018-01-13T14:00:07.542Z,6.26
2018-01-13T14:02:35.562Z,6.23
2018-01-13T14:05:03.978Z,6.24
2018-01-13T14:07:31.823Z,6.23
2018-01-13T14:10:01.148Z,6.23
2018-01-13T14:12:27.079Z,6.22
2018-01-13T14:14:54.988Z,6.16
2018-01-13T14:17:22.602Z,6.18
2018-01-13T14:19:57.409Z,6.13
2018-01-13T14:23:11.422Z,6.13
2018-01-13T14:25:39.351Z,6.11
2018-01-13T14:28:07.366Z,6.09
2018-01-13T14:30:47.916Z,6.07
2018-01-13T14:33:15.609Z,6.05
2018-01-13T14:35:43.291Z,6.08
2018-01-13T14:38:10.929Z,6.07
2018-01-13T14:40:41.810Z,6.03
2018-01-13T14:43:09.838Z,5.98
2018-01-13T14:46:08.251Z,5.97
2018-01-13T14:48:49.098Z,5.96
2018-01-13T14:51:21.909Z,5.90
2018-01-13T14:53:59.694Z,5.91
2018-01-13T14:56:39.578Z,5.89
2018-01-13T15:01:53.947Z,5.86
2018-01-13T15:04:26.933Z,5.84
2018-01-13T15:07:01.839Z,5.83
2018-01-13T15:09:31.077Z,5.80
2018-01-13T15:11:58.661Z,5.79
2018-01-13T15:14:26.261Z,5.76
2018-01-13T15:16:53.886Z,5.81
2018-01-13T15:19:21.493Z,5.81
2018-01-13T15:21:49.126Z,5.78
2018-01-13T15:24:17.129Z,5.75
2018-01-13T15:26:44.852Z,5.73
2018-01-13T15:29:12.598Z,5.68
2018-01-13T15:31:40.571Z,5.72
2018-01-13T15:34:08.166Z,5.72
2018-01-13T15:36:35.818Z,5.77
2018-01-13T15:39:03.562Z,5.75
2018-01-13T15:41:31.445Z,5.76
2018-01-13T15:43:59.004Z,5.73
2018-01-13T15:46:26.672Z,5.70
2018-01-13T15:48:54.239Z,5.68
2018-01-13T15:51:22.041Z,5.68
2018-01-13T15:53:49.897Z,5.67
2018-01-13T15:56:17.482Z,5.66
2018-01-13T15:58:45.167Z,5.64
2018-01-13T16:01:13.039Z,5.59
2018-01-13T16:03:40.628Z,5.54
2018-01-13T16:06:08.253Z,5.56
2018-01-13T16:08:35.873Z,5.56
2018-01-13T16:11:03.517Z,5.54
2018-01-13T16:13:31.230Z,5.53
2018-01-13T16:15:58.867Z,5.53
2018-01-13T16:18:26.478Z,5.48
2018-01-13T16:20:54.079Z,5.44
2018-01-13T16:23:21.960Z,5.39
2018-01-13T16:25:49.812Z,5.42
2018-01-13T16:28:17.559Z,5.40
2018-01-13T16:30:45.186Z,5.39
2018-01-13T16:33:12.749Z,5.38
2018-01-13T16:35:41.044Z,5.36
2018-01-13T16:38:08.644Z,5.37
2018-01-13T16:40:36.218Z,5.35
2018-01-13T16:43:04.240Z,5.28
2018-01-13T16:45:31.907Z,5.27
2018-01-13T16:47:59.635Z,5.25
2018-01-13T16:50:27.679Z,5.24
2018-01-13T16:52:55.258Z,5.24
2018-01-13T16:55:22.861Z,5.18
2018-01-13T16:57:50.558Z,5.17
2018-01-13T17:00:18.314Z,5.13
2018-01-13T17:02:46.345Z,5.12
2018-01-13T17:05:13.977Z,5.14
2018-01-13T17:07:41.549Z,5.17
2018-01-13T17:10:09.176Z,5.09
2018-01-13T17:12:36.772Z,5.07
2018-01-13T17:15:04.425Z,5.02
2018-01-13T17:17:32.249Z,5.04
2018-01-13T17:19:59.841Z,5.03
2018-01-13T17:22:27.431Z,5.04
2018-01-13T17:24:55.082Z,5.04
2018-01-13T17:27:22.690Z,4.96
2018-01-13T17:29:50.328Z,4.97
2018-01-13T17:32:18.022Z,5.01
2018-01-13T17:34:45.594Z,4.96
2018-01-13T17:37:13.477Z,4.90
2018-01-13T17:39:41.145Z,4.81
2018-01-13T17:42:08.988Z,4.73
2018-01-13T17:44:38.854Z,4.73
2018-01-13T17:47:09.637Z,4.67
2018-01-13T17:49:37.287Z,4.66
2018-01-13T17:52:12.467Z,4.63
2018-01-13T17:54:41.396Z,4.57
2018-01-13T17:57:09.152Z,4.58
2018-01-13T17:59:37.514Z,4.55
2018-01-13T18:02:05.600Z,4.53
2018-01-13T18:04:33.236Z,4.52
2018-01-13T18:07:03.328Z,4.54
2018-01-13T18:09:32.034Z,4.47
2018-01-13T18:11:59.714Z,4.46
2018-01-13T18:14:43.979Z,4.47
2018-01-13T18:17:15.019Z,4.42
2018-01-13T18:19:44.647Z,4.40
2018-01-13T18:22:12.983Z,4.45
2018-01-13T18:24:40.703Z,4.43
2018-01-13T18:27:08.339Z,4.39
2018-01-13T18:29:36.254Z,4.35
2018-01-13T18:32:03.833Z,4.32
2018-01-13T18:34:32.186Z,4.26
2018-01-13T18:36:59.759Z,4.31
2018-01-13T18:39:27.358Z,4.26
2018-01-13T18:41:55.017Z,4.25
2018-01-13T18:44:22.685Z,4.33
2018-01-13T18:46:51.295Z,4.23
2018-01-13T18:49:19.288Z,4.21
2018-01-13T18:51:46.936Z,4.20
2018-01-13T18:54:14.512Z,4.14
2018-01-13T18:56:42.529Z,4.18
2018-01-13T18:59:10.187Z,4.14
2018-01-13T19:01:37.871Z,4.12
2018-01-13T19:04:05.685Z,4.12
2018-01-13T19:06:33.480Z,4.11
2018-01-13T19:09:01.404Z,4.08
2018-01-13T19:11:29.479Z,4.10
2018-01-13T19:13:57.268Z,4.12
2018-01-13T19:16:24.954Z,4.10
2018-01-13T19:18:52.587Z,4.12
2018-01-13T19:21:20.159Z,4.13
2018-01-13T19:23:48.114Z,4.04
2018-01-13T19:26:15.912Z,4.04
2018-01-13T19:28:43.947Z,4.04
2018-01-13T19:31:11.534Z,4.04
2018-01-13T19:33:39.175Z,4.04
2018-01-13T19:36:06.829Z,4.01
2018-01-13T19:38:34.493Z,4.03
2018-01-13T19:41:02.057Z,4.05
2018-01-13T19:43:29.884Z,4.06
2018-01-13T19:45:57.546Z,4.12
2018-01-13T19:48:26.414Z,4.05
2018-01-13T19:50:54.354Z,4.03
2018-01-13T19:53:21.964Z,4.03
2018-01-13T19:55:49.571Z,4.02
2018-01-13T19:58:17.527Z,4.00
2018-01-13T20:00:45.176Z,4.02
2018-01-13T20:03:12.763Z,4.01
2018-01-13T20:05:40.364Z,4.03
2018-01-13T20:08:08.556Z,4.05
2018-01-13T20:10:36.358Z,4.03
2018-01-13T20:13:04.045Z,4.01
2018-01-13T20:15:31.730Z,3.94
2018-01-13T20:17:59.745Z,3.89
2018-01-13T20:20:27.409Z,3.90
2018-01-13T20:22:55.018Z,3.91
2018-01-13T20:25:22.658Z,3.88
2018-01-13T20:27:50.595Z,3.87
2018-01-13T20:30:18.212Z,3.85
2018-01-13T20:32:46.120Z,3.87
2018-01-13T20:35:14.093Z,3.84
2018-01-13T20:37:41.766Z,3.85
2018-01-13T20:40:09.410Z,3.83
2018-01-13T20:42:37.035Z,3.79
2018-01-13T20:45:04.651Z,3.78
2018-01-13T20:47:32.410Z,3.85
2018-01-13T20:50:00.068Z,3.85
2018-01-13T20:52:27.900Z,3.84
2018-01-13T20:54:55.598Z,3.85
2018-01-13T20:57:23.563Z,3.85
2018-01-13T20:59:51.192Z,3.86
2018-01-13T21:02:18.876Z,3.82
2018-01-13T21:04:46.485Z,3.78
2018-01-13T21:07:14.098Z,3.78
2018-01-13T21:09:42.172Z,3.69
2018-01-13T21:12:09.766Z,3.71
2018-01-13T21:14:37.380Z,3.66
2018-01-13T21:17:05.173Z,3.69
2018-01-13T21:19:32.838Z,3.69
2018-01-13T21:22:00.529Z,3.65
2018-01-13T21:24:28.165Z,3.62
2018-01-13T21:26:55.762Z,3.61
2018-01-13T21:29:23.794Z,3.61
2018-01-13T21:31:51.465Z,3.57
2018-01-13T21:34:19.156Z,3.55
2018-01-13T21:36:46.754Z,3.53
2018-01-13T21:39:14.327Z,3.49
2018-01-13T21:41:42.219Z,3.50
2018-01-13T21:44:10.130Z,3.46
2018-01-13T21:46:37.820Z,3.44
2018-01-13T21:49:05.522Z,3.46
2018-01-13T21:51:33.173Z,3.46
2018-01-13T21:54:00.781Z,3.40
2018-01-13T21:56:28.373Z,3.40
2018-01-13T21:58:56.384Z,3.37
2018-01-13T22:01:23.949Z,3.38
2018-01-13T22:03:51.553Z,3.35
2018-01-13T22:06:19.417Z,3.37
2018-01-13T22:08:47.417Z,3.34
2018-01-13T22:11:15.008Z,3.36
2018-01-13T22:13:42.940Z,3.34
2018-01-13T22:16:10.707Z,3.32
2018-01-13T22:18:38.518Z,3.38
2018-01-13T22:21:06.245Z,3.31
2018-01-13T22:23:33.984Z,3.29
2018-01-13T22:26:01.545Z,3.32
2018-01-13T22:28:29.131Z,3.26
2018-01-13T22:30:56.697Z,3.24
2018-01-13T22:33:24.642Z,3.15
2018-01-13T22:35:52.248Z,3.18
2018-01-13T22:38:19.887Z,3.17
2018-01-13T22:40:47.587Z,3.18
2018-01-13T22:43:15.429Z,3.15
2018-01-13T22:45:43.086Z,3.06
2018-01-13T22:48:10.720Z,3.04
2018-01-13T22:50:38.727Z,3.02
2018-01-13T22:53:06.306Z,2.98
2018-01-13T22:55:34.005Z,2.99
2018-01-13T22:58:01.622Z,2.95
2018-01-13T23:00:32.993Z,2.91
2018-01-13T23:03:00.578Z,2.89
2018-01-13T23:05:28.254Z,2.83
2018-01-13T23:07:56.115Z,2.87
2018-01-13T23:10:23.741Z,2.91
2018-01-13T23:12:51.738Z,2.89
2018-01-13T23:15:19.329Z,2.93
2018-01-13T23:17:46.951Z,2.91
2018-01-13T23:20:14.624Z,2.87
2018-01-13T23:22:42.239Z,2.80
2018-01-13T23:25:09.884Z,2.83
2018-01-13T23:27:37.513Z,2.85
2018-01-13T23:30:05.220Z,2.85
2018-01-13T23:32:32.828Z,2.83
2018-01-13T23:35:00.959Z,2.85
2018-01-13T23:37:28.790Z,2.85
2018-01-13T23:39:56.653Z,2.86
2018-01-13T23:42:24.292Z,2.83
2018-01-13T23:44:51.932Z,2.79
2018-01-13T23:47:19.765Z,2.78
2018-01-13T23:49:47.741Z,2.76
2018-01-13T23:52:15.432Z,2.71
2018-01-13T23:54:43.059Z,2.71
2018-01-13T23:57:10.682Z,2.74
2018-01-13T23:59:38.462Z,2.77
